Latest Weather Observations for Snowtown

IDS60801

Issued at 9:02 pm CST Saturday 23 May 2015 (issued every 30 minutes, with the page automatically refreshed every 10 minutes)

About weather observations | Map of weather stations | Latest weather observations for SA | Other Formats
Station Details ID: 021133 Name: RAYVILLE PARK Lat: -33.77 Lon: 138.22 Height: 109.1 m
Data from the previous 72 hours. | See also: Recent months at Snowtown
Date/Time
CST
Temp
°C
App
Temp
°C
Dew
Point
Rel
Hum
%
Delta-T
°C
Wind Press
QNH
hPa
Press
MSL
hPa
Rain
since 9 am
mm
Dir
 
Spd
km/h
Gust
km/h
Spd
kts
Gust
kts
23/09:00pm 9.6 6.8 7.0 84 1.2 N 11 15 6 8 1029.1 1029.1 0.2
23/08:30pm 10.3 8.1 7.7 84 1.2 NNW 9 13 5 7 1028.9 1028.9 0.2
23/08:00pm 10.4 8.2 8.0 85 1.2 NW 9 11 5 6 1028.4 1028.4 0.2
23/07:30pm 10.6 8.9 7.7 82 1.4 E 6 11 3 6 1028.2 1028.2 0.2
23/07:00pm 11.1 9.5 7.8 80 1.6 E 6 7 3 4 1028.1 1028.1 0.2
23/06:30pm 9.4 8.5 6.1 80 1.5 CALM 0 0 0 0 1028.1 1028.1 0.2
23/06:00pm 10.9 10.1 6.3 73 2.1 CALM 0 0 0 0 1028.1 1028.1 0.2
23/05:30pm 13.4 12.7 7.0 65 3.1 CALM 0 2 0 1 1028.1 1028.1 0.2
23/05:00pm 15.8 14.0 7.3 57 4.2 E 6 7 3 4 1028.1 1028.1 0.2
23/04:30pm 17.1 15.3 8.0 55 4.6 ENE 7 9 4 5 1028.1 1028.1 0.2
23/04:00pm 17.3 15.6 7.6 53 4.9 ESE 6 15 3 8 1028.0 1028.0 0.2
23/03:30pm 17.2 15.0 7.8 54 4.7 E 9 13 5 7 1028.0 1028.0 0.2
23/03:00pm 17.8 16.1 7.5 51 5.2 ENE 6 15 3 8 1028.2 1028.2 0.2
23/02:30pm 17.8 15.5 7.5 51 5.2 NE 9 19 5 10 1028.4 1028.4 0.2
23/02:00pm 17.7 14.7 7.7 52 5.1 NNE 13 20 7 11 1028.6 1028.6 0.2
23/01:30pm 17.0 14.7 7.6 54 4.7 N 9 19 5 10 1028.8 1028.8 0.2
23/01:00pm 16.4 13.9 8.1 58 4.2 NNE 11 17 6 9 1029.3 1029.3 0.2
23/12:30pm 16.0 14.0 8.7 62 3.7 NE 9 15 5 8 1029.7 1029.7 0.2
23/12:00pm 14.8 12.2 7.8 63 3.5 NE 11 17 6 9 1030.2 1030.2 0.0
23/11:30am 14.1 11.0 7.4 64 3.3 NNE 13 19 7 10 1030.8 1030.8 0.0
23/11:00am 13.7 11.0 7.2 65 3.2 NNE 11 17 6 9 1031.3 1031.3 0.0
23/10:30am 13.0 9.8 6.8 66 3.0 NE 13 17 7 9 1031.5 1031.6 0.0
23/10:00am 12.6 9.1 7.1 69 2.6 NNE 15 19 8 10 1031.8 1031.9 0.0
23/09:30am 11.8 9.7 6.5 70 2.5 N 7 11 4 6 1031.8 1031.9 0.0
23/09:00am 10.4 8.5 6.5 77 1.8 NNW 6 7 3 4 1031.8 1031.9 0.0
23/08:30am 8.6 7.0 6.4 86 1.0 NNW 4 7 2 4 1031.6 1031.7 0.0
23/08:00am 5.9 4.8 5.2 95 0.3 CALM 0 0 0 0 1031.3 1031.3 0.0
23/07:30am 4.2 1.5 3.6 96 0.2 NNW 7 9 4 5 1031.3 1031.3 0.0
23/07:00am 3.9 1.6 3.0 94 0.4 N 4 7 2 4 1031.0 1031.0 0.0
23/06:30am 5.0 2.3 2.9 86 0.9 N 6 7 3 4 1030.9 1030.9 0.0
23/06:00am 5.6 3.0 4.2 91 0.6 N 7 9 4 5 1030.7 1030.7 0.0
23/05:30am 5.4 2.1 4.5 94 0.4 NNW 11 13 6 7 1030.6 1030.6 0.0
23/05:00am 4.5 0.6 3.6 94 0.4 NNW 13 13 7 7 1030.5 1030.5 0.0
23/04:30am 4.3 1.3 3.9 97 0.2 NW 9 11 5 6 1030.4 1030.4 0.0
23/04:00am 2.7 -0.3 2.1 96 0.2 W 7 9 4 5 1030.6 1030.6 0.0
23/03:30am 2.8 1.1 2.1 95 0.3 CALM 0 0 0 0 1030.6 1030.6 0.0
23/03:00am 3.6 0.9 2.7 94 0.4 W 6 7 3 4 1030.8 1030.8 0.0
23/02:30am 4.4 1.8 3.2 92 0.5 SW 6 11 3 6 1031.0 1031.0 0.0
23/02:00am 4.8 1.7 3.6 92 0.5 SW 9 13 5 7 1031.2 1031.2 0.0
23/01:30am 6.2 3.3 4.8 91 0.6 SW 9 13 5 7 1031.1 1031.1 0.0
23/01:00am 7.4 4.8 5.9 90 0.7 SSW 9 11 5 6 1031.0 1031.0 0.0
23/12:30am 6.3 3.4 4.9 91 0.6 SW 9 13 5 7 1031.1 1031.1 0.0
23/12:00am 7.0 3.5 5.6 91 0.6 SW 13 17 7 9 1031.1 1031.1 0.0
 
Date/Time
CST
Temp
°C
App
Temp
°C
Dew
Point
Rel
Hum
%
Delta-T
°C
Wind Press
QNH
hPa
Press
MSL
hPa
Rain
since 9 am
mm
Dir
 
Spd
km/h
Gust
km/h
Spd
kts
Gust
kts
22/11:30pm 6.8 3.3 5.6 92 0.5 SSW 13 15 7 8 1031.0 1031.0 0.0
22/11:00pm 7.2 4.3 6.3 94 0.4 SE 11 15 6 8 1031.0 1031.0 0.0
22/10:30pm 7.0 4.6 5.2 88 0.8 SE 7 11 4 6 1030.9 1030.9 0.0
22/10:00pm 9.0 6.5 6.6 85 1.1 SE 9 9 5 5 1031.1 1031.1 0.0
22/09:30pm 8.6 5.3 6.2 85 1.1 SE 13 15 7 8 1031.0 1031.0 0.0
22/09:00pm 9.9 6.3 6.8 81 1.5 ESE 15 19 8 10 1031.1 1031.1 0.0
22/08:30pm 11.9 7.5 7.2 73 2.3 E 20 26 11 14 1031.2 1031.2 0.0
22/08:00pm 11.2 9.1 8.4 83 1.4 SSW 9 13 5 7 1031.3 1031.3 0.0
22/07:30pm 11.3 9.3 8.5 83 1.4 SSW 9 13 5 7 1031.4 1031.4 0.0
22/07:00pm 11.5 9.1 8.5 82 1.5 SSW 11 15 6 8 1031.3 1031.3 0.0
22/06:30pm 12.3 10.2 8.2 76 2.0 SE 9 15 5 8 1031.2 1031.2 0.0
22/06:00pm 12.6 10.1 8.1 74 2.2 SE 11 17 6 9 1030.8 1030.8 0.0
22/05:30pm 12.8 9.9 8.3 74 2.2 SE 13 20 7 11 1030.3 1030.3 0.0
22/05:00pm 13.4 10.0 7.8 69 2.8 SE 15 22 8 12 1030.3 1030.3 0.0
22/04:30pm 13.6 9.9 8.0 69 2.8 SE 17 20 9 11 1030.2 1030.2 0.0
22/04:00pm 13.8 10.2 8.2 69 2.8 SE 17 20 9 11 1030.3 1030.3 0.0
22/03:30pm 14.0 10.0 8.4 69 2.8 SE 19 22 10 12 1030.4 1030.4 0.0
22/03:00pm 13.8 10.8 7.8 67 3.0 SSE 13 19 7 10 1030.5 1030.5 0.0
22/02:30pm 13.7 10.0 8.1 69 2.8 S 17 20 9 11 1030.6 1030.6 0.0
22/02:00pm 13.8 10.2 8.4 70 2.7 SE 17 20 9 11 1030.6 1030.6 0.0
22/01:30pm 13.4 9.1 7.8 69 2.8 SE 20 26 11 14 1030.6 1030.6 0.0
22/01:00pm 13.6 9.4 8.2 70 2.7 SE 20 26 11 14 1030.6 1030.6 0.0
22/12:30pm 13.7 8.7 8.1 69 2.8 ESE 24 30 13 16 1031.0 1031.0 0.0
22/12:00pm 12.8 9.3 8.7 76 2.0 SSE 17 22 9 12 1031.6 1031.7 0.0
22/11:30am 12.8 8.9 8.5 75 2.1 SE 19 24 10 13 1031.9 1032.0 0.0
22/11:00am 12.1 8.6 8.6 79 1.7 ESE 17 20 9 11 1032.4 1032.4 0.0
22/10:30am 11.8 7.8 8.3 79 1.7 SE 19 24 10 13 1032.3 1032.3 0.0
22/10:00am 11.3 8.2 9.0 86 1.2 SSE 15 22 8 12 1032.1 1032.1 0.0
22/09:30am 9.6 7.2 8.7 94 0.4 S 11 15 6 8 1031.8 1031.9 0.0
22/09:00am 8.8 6.8 8.7 99 0.0 SSW 9 11 5 6 1031.8 1031.9 0.2
22/08:30am 7.6 5.7 7.5 99 0.0 SSW 7 11 4 6 1031.6 1031.7 0.2
22/08:00am 6.3 4.3 6.2 99 0.0 SW 6 7 3 4 1031.3 1031.3 0.2
22/07:30am 5.9 3.6 5.8 99 0.0 SW 7 9 4 5 1030.8 1030.8 0.2
22/07:00am 6.2 3.6 6.1 99 0.0 SW 9 11 5 6 1030.5 1030.5 0.2
22/06:30am 6.8 4.9 6.7 99 0.0 SSW 6 7 3 4 1030.0 1030.0 0.2
22/06:00am 7.0 5.1 6.9 99 0.0 SSW 6 9 3 5 1029.8 1029.8 0.2
22/05:30am 7.2 4.8 7.1 99 0.0 SSW 9 11 5 6 1029.4 1029.4 0.2
22/05:00am 6.1 3.4 5.8 98 0.1 SW 9 11 5 6 1029.3 1029.3 0.0
22/04:30am 5.5 3.3 5.1 97 0.2 S 6 6 3 3 1029.1 1029.1 0.0
22/04:00am 6.3 3.7 5.9 97 0.2 S 9 11 5 6 1029.2 1029.2 0.0
22/03:30am 6.2 4.1 5.9 98 0.1 SW 6 7 3 4 1029.5 1029.5 0.0
22/03:00am 5.2 2.7 4.8 97 0.2 SW 7 7 4 4 1029.5 1029.5 0.0
22/02:30am 4.6 2.0 4.0 96 0.3 SW 7 9 4 5 1029.6 1029.6 0.0
22/02:00am 4.9 2.5 4.3 96 0.3 SW 6 7 3 4 1029.7 1029.7 0.0
22/01:30am 5.5 3.3 5.1 97 0.2 SW 6 7 3 4 1029.7 1029.7 0.0
22/01:00am 6.1 3.4 5.7 97 0.2 SW 9 11 5 6 1029.8 1029.8 0.0
22/12:30am 6.3 4.0 5.7 96 0.3 SW 7 9 4 5 1029.8 1029.8 0.0
22/12:00am 7.3 4.8 6.6 95 0.3 SW 9 11 5 6 1029.7 1029.7 0.0
 
Date/Time
CST
Temp
°C
App
Temp
°C
Dew
Point
Rel
Hum
%
Delta-T
°C
Wind Press
QNH
hPa
Press
MSL
hPa
Rain
since 9 am
mm
Dir
 
Spd
km/h
Gust
km/h
Spd
kts
Gust
kts
21/11:30pm 8.4 6.1 7.3 93 0.5 SSW 9 13 5 7 1029.6 1029.6 0.0
21/11:00pm 8.9 6.0 8.0 94 0.4 SSW 13 17 7 9 1029.8 1029.8 0.0
21/10:30pm 9.5 6.2 7.9 90 0.8 SSW 15 22 8 12 1030.0 1030.0 0.0
21/10:00pm 7.7 5.6 6.6 93 0.5 SSW 7 9 4 5 1029.9 1029.9 0.0
21/09:30pm 7.1 4.5 6.0 93 0.5 SSW 9 11 5 6 1029.8 1029.8 0.0
21/09:00pm 6.7 3.6 5.7 93 0.4 WSW 11 13 6 7 1029.6 1029.6 0.0
21/08:30pm 6.8 3.7 5.6 92 0.5 SW 11 13 6 7 1029.6 1029.6 0.0
21/08:00pm 7.3 4.7 5.9 91 0.6 SW 9 11 5 6 1029.4 1029.4 0.0
21/07:30pm 8.0 5.4 6.0 87 0.9 SW 9 11 5 6 1029.3 1029.3 0.0
21/07:00pm 9.1 6.1 6.2 82 1.3 SW 11 17 6 9 1029.1 1029.1 0.0
21/06:30pm 10.4 7.2 6.7 78 1.7 SW 13 15 7 8 1028.8 1028.8 0.0
21/06:00pm 10.7 7.6 7.4 80 1.6 SSW 13 17 7 9 1028.5 1028.5 0.0
21/05:30pm 11.0 7.5 7.1 77 1.9 SSW 15 20 8 11 1028.2 1028.2 0.0
21/05:00pm 11.5 7.4 6.4 71 2.4 SSW 17 22 9 12 1028.0 1028.0 0.0
21/04:30pm 12.6 7.5 6.2 65 3.0 SSW 22 30 12 16 1027.7 1027.7 0.0
21/04:00pm 13.9 9.1 5.8 58 3.9 SSW 20 26 11 14 1027.3 1027.3 0.0
21/03:30pm 14.3 9.8 6.9 61 3.6 SSW 20 26 11 14 1027.1 1027.1 0.0
21/03:00pm 13.5 9.0 6.1 61 3.5 S 19 26 10 14 1027.2 1027.2 0.0
21/02:30pm 13.1 8.8 6.9 66 3.0 S 19 24 10 13 1027.3 1027.3 0.0
21/02:00pm 12.2 7.9 7.1 71 2.5 S 19 24 10 13 1027.5 1027.5 0.0
21/01:30pm 12.4 7.9 6.9 69 2.6 S 20 32 11 17 1027.7 1027.7 0.0
21/01:00pm 13.3 9.6 6.4 63 3.3 SSE 15 22 8 12 1027.6 1027.6 0.0
21/12:30pm 12.6 8.3 6.9 68 2.7 S 19 24 10 13 1027.9 1027.9 0.0
21/12:00pm 12.7 9.6 7.2 69 2.7 SSE 13 20 7 11 1028.1 1028.1 0.0
21/11:30am 11.8 8.8 7.5 75 2.1 SSE 13 17 7 9 1028.5 1028.5 0.0
21/11:00am 11.6 8.4 6.9 73 2.3 S 13 19 7 10 1028.7 1028.7 0.0
21/10:30am 10.9 8.3 7.6 80 1.6 SSE 11 15 6 8 1028.7 1028.7 0.0
21/10:00am 10.7 8.1 7.9 83 1.4 SSE 11 15 6 8 1028.4 1028.4 0.0
21/09:30am 10.2 7.6 7.8 85 1.2 SSE 11 15 6 8 1028.1 1028.1 0.0
21/09:00am 9.7 7.9 8.1 90 0.8 S 7 11 4 6 1027.8 1027.8 0.4
21/08:30am 9.5 8.0 9.0 97 0.2 S 7 11 4 6 1027.6 1027.6 0.4
21/08:00am 9.3 7.9 8.8 97 0.2 S 6 9 3 5 1027.0 1027.0 0.4
21/07:30am 8.9 6.9 8.5 97 0.2 S 9 13 5 7 1026.8 1026.8 0.4
21/07:00am 9.0 6.2 8.4 96 0.3 S 13 17 7 9 1026.5 1026.5 0.2
21/06:30am 8.7 6.5 7.9 95 0.4 SSW 9 13 5 7 1026.0 1026.0 0.2
21/06:00am 8.6 6.4 7.7 94 0.4 SW 9 11 5 6 1025.7 1025.7 0.2
21/05:30am 8.3 6.0 7.5 95 0.4 SW 9 13 5 7 1025.4 1025.4 0.2
21/05:00am 8.7 6.6 8.1 96 0.3 SW 9 13 5 7 1025.1 1025.1 0.2
21/04:30am 8.7 6.2 8.3 97 0.2 SSW 11 13 6 7 1024.9 1024.9 0.2
21/04:00am 8.9 6.8 8.3 96 0.3 SSW 9 11 5 6 1024.7 1024.7 0.2
21/03:30am 8.7 6.1 7.9 95 0.4 SSW 11 15 6 8 1024.7 1024.7 0.2
21/03:00am 8.9 6.1 8.5 97 0.2 S 13 17 7 9 1024.7 1024.7 0.2
21/02:30am 8.7 5.9 8.4 98 0.1 S 13 15 7 8 1024.6 1024.6 0.2
21/02:00am 8.2 5.2 7.8 97 0.2 SSW 13 19 7 10 1024.6 1024.6 0.2
21/01:30am 6.5 3.9 6.2 98 0.1 SSW 9 11 5 6 1024.3 1024.3 0.2
21/01:00am 5.5 2.6 4.9 96 0.3 SW 9 11 5 6 1024.1 1024.1 0.2
21/12:30am 6.1 3.4 5.5 96 0.3 SSW 9 11 5 6 1024.0 1024.0 0.0
21/12:00am 6.3 3.6 5.6 95 0.3 SW 9 13 5 7 1024.1 1024.1 0.0
 
Date/Time
CST
Temp
°C
App
Temp
°C
Dew
Point
Rel
Hum
%
Delta-T
°C
Wind Press
QNH
hPa
Press
MSL
hPa
Rain
since 9 am
mm
Dir
 
Spd
km/h
Gust
km/h
Spd
kts
Gust
kts
20/11:30pm 6.3 3.2 5.4 94 0.4 SW 11 11 6 6 1024.0 1024.0 0.0
20/11:00pm 6.7 4.0 5.5 92 0.5 SW 9 11 5 6 1024.0 1024.0 0.0
20/10:30pm 8.9 5.4 7.0 88 0.9 SSW 15 20 8 11 1023.9 1023.9 0.0
20/10:00pm 8.5 5.3 6.8 89 0.8 SSW 13 19 7 10 1023.9 1023.9 0.0
20/09:30pm 7.4 4.7 5.7 89 0.8 SSW 9 13 5 7 1023.8 1023.7 0.0

Other Formats:

Comma delimited format used in spreadsheet applications
http://www.bom.gov.au/fwo/IDS60801/IDS60801.95670.axf

JavaScript Object Notation format (JSON) in row-major order
http://www.bom.gov.au/fwo/IDS60801/IDS60801.95670.json